CheckWX is a tool to help pilots better visualize weather data.  It is not intended as a substitute for an official pre-flight weather briefing.

16:55:18 UTC

CYEK TAF
Arviat Airport
Arviat, Canada
TAF CYEK 181138Z 1812/1824 17012KT P6SM SCT200 BECMG 1817/1819 19015G25KT RMK FCST BASED ON AUTO OBS. NXT FCST BY 181800Z

Jun-18@
12:00 UTC

Jun-18 @ 12:00 UTC

Jun-18@
17:00 UTC

Jun-18 @ 17:00 UTC

TAF CYEK 181138Z 1812/1824 17012KT P6SM SCT200
Wind
  • 170° at 12 KTS
Cloud Levels
  • Scattered at 20,000' AGL

Jun-18@
17:00 UTC

Jun-18 @ 17:00 UTC

Jun-19@
00:00 UTC

Jun-19 @ 00:00 UTC

BECMG 1817/1819 19015G25KT RMK FCST BASED ON AUTO OBS. NXT FCST BY 181800Z

Becoming

Becoming Conditions expected by Tue, Jun 18, 2019 @ 19:00 UTC

Wind
  • 190° at 15 KTS
  • {Gusting to 25 KTS
Cloud Levels
  • Scattered at 20,000' AGL